createdAt,value
2023-05-08T00:00:59.067Z,9.26
2023-05-08T00:02:01.952Z,9.23
2023-05-08T00:03:05.437Z,9.22
2023-05-08T00:04:08.607Z,9.20
2023-05-08T00:05:12.070Z,9.19
2023-05-08T00:06:14.949Z,9.17
2023-05-08T00:07:17.838Z,9.16
2023-05-08T00:08:20.853Z,9.15
2023-05-08T00:09:23.872Z,9.13
2023-05-08T00:10:28.071Z,9.11
2023-05-08T00:11:30.873Z,9.10
2023-05-08T00:12:33.785Z,9.08
2023-05-08T00:13:36.597Z,9.07
2023-05-08T00:14:39.438Z,9.06
2023-05-08T00:15:42.434Z,9.04
2023-05-08T00:16:45.314Z,9.03
2023-05-08T00:17:48.314Z,9.02
2023-05-08T00:18:53.504Z,9.00
2023-05-08T00:19:56.774Z,8.99
2023-05-08T00:20:59.850Z,8.96
2023-05-08T00:22:02.626Z,8.94
2023-05-08T00:23:05.604Z,8.92
2023-05-08T00:24:08.473Z,8.90
2023-05-08T00:25:11.576Z,8.89
2023-05-08T00:26:14.623Z,8.87
2023-05-08T00:27:17.460Z,8.86
2023-05-08T00:28:21.299Z,8.83
2023-05-08T00:29:24.091Z,8.81
2023-05-08T00:30:27.306Z,8.79
2023-05-08T00:31:30.377Z,8.77
2023-05-08T00:32:33.533Z,8.76
2023-05-08T00:33:36.384Z,8.74
2023-05-08T00:34:39.366Z,8.73
2023-05-08T00:35:43.000Z,8.72
2023-05-08T00:36:46.145Z,8.70
2023-05-08T00:37:49.033Z,8.69
2023-05-08T00:38:51.904Z,8.68
2023-05-08T00:39:54.663Z,8.66
2023-05-08T00:40:58.226Z,8.63
2023-05-08T00:42:01.334Z,8.61
2023-05-08T00:43:04.121Z,8.57
2023-05-08T00:44:06.904Z,8.55
2023-05-08T00:45:10.135Z,8.52
2023-05-08T00:46:14.092Z,8.49
2023-05-08T00:47:17.182Z,8.48
2023-05-08T00:48:21.208Z,8.46
2023-05-08T00:49:25.133Z,8.44
2023-05-08T00:50:28.607Z,8.42
2023-05-08T00:51:32.981Z,8.39
2023-05-08T00:52:36.336Z,8.36
2023-05-08T00:53:42.884Z,8.35
2023-05-08T00:54:46.894Z,8.33
2023-05-08T00:55:51.815Z,8.32
2023-05-08T00:56:55.727Z,8.31
2023-05-08T00:57:59.737Z,8.29
2023-05-08T00:59:04.404Z,8.28
2023-05-08T01:00:08.426Z,8.26
2023-05-08T01:01:11.823Z,8.24
2023-05-08T01:02:14.977Z,8.23
2023-05-08T01:03:18.888Z,8.22
2023-05-08T01:04:24.935Z,8.21
2023-05-08T01:05:28.419Z,8.21
2023-05-08T01:06:31.900Z,8.19
2023-05-08T01:07:35.033Z,8.18
2023-05-08T01:08:38.188Z,8.18
2023-05-08T01:09:41.359Z,8.18
2023-05-08T01:11:23.545Z,8.17
2023-05-08T01:12:48.873Z,8.14
2023-05-08T01:13:57.466Z,8.12
2023-05-08T01:15:36.384Z,8.10
2023-05-08T01:16:46.616Z,8.09
2023-05-08T01:18:20.002Z,8.08
2023-05-08T01:19:35.693Z,8.07
2023-05-08T01:21:04.143Z,8.06
2023-05-08T01:22:44.613Z,8.05
2023-05-08T01:23:59.562Z,8.04
2023-05-08T01:25:44.174Z,8.02
2023-05-08T01:27:11.910Z,8.01
2023-05-08T01:28:51.686Z,7.98
2023-05-08T01:32:01.462Z,7.92
2023-05-08T01:33:20.106Z,7.90
2023-05-08T01:34:32.347Z,7.90
2023-05-08T01:35:53.328Z,7.89
2023-05-08T01:37:11.571Z,7.89
2023-05-08T01:38:39.836Z,7.87
2023-05-08T01:40:02.127Z,7.86
2023-05-08T01:41:16.600Z,7.84
2023-05-08T01:42:28.583Z,7.83
2023-05-08T01:43:41.627Z,7.83
2023-05-08T01:44:49.480Z,7.81
2023-05-08T01:45:56.465Z,7.81
2023-05-08T01:47:06.854Z,7.81
2023-05-08T01:48:12.053Z,7.80
2023-05-08T01:49:34.279Z,7.77
2023-05-08T01:50:52.886Z,7.78
2023-05-08T01:52:15.704Z,7.78
2023-05-08T01:53:37.159Z,7.77
2023-05-08T01:54:46.997Z,7.77
2023-05-08T01:55:53.129Z,7.75
2023-05-08T01:56:59.511Z,7.75
2023-05-08T01:58:07.385Z,7.75
2023-05-08T01:59:14.794Z,7.75
2023-05-08T02:00:22.290Z,7.74
2023-05-08T02:01:26.353Z,7.74
2023-05-08T02:02:33.236Z,7.74
2023-05-08T02:03:38.413Z,7.75
2023-05-08T02:04:44.317Z,7.74
2023-05-08T02:05:49.764Z,7.74
2023-05-08T02:06:54.403Z,7.73
2023-05-08T02:07:58.773Z,7.72
2023-05-08T02:09:02.228Z,7.72
2023-05-08T02:10:08.130Z,7.71
2023-05-08T02:11:12.698Z,7.69
2023-05-08T02:12:17.483Z,7.68
2023-05-08T02:13:22.031Z,7.67
2023-05-08T02:14:27.568Z,7.65
2023-05-08T02:15:35.968Z,7.64
2023-05-08T02:16:41.091Z,7.64
2023-05-08T02:17:48.511Z,7.63
2023-05-08T02:18:54.000Z,7.63
2023-05-08T02:19:59.002Z,7.63
2023-05-08T02:21:05.530Z,7.63
2023-05-08T02:22:10.306Z,7.63
2023-05-08T02:23:15.813Z,7.62
2023-05-08T02:24:19.605Z,7.61
2023-05-08T02:25:23.024Z,7.60
2023-05-08T02:26:27.237Z,7.59
2023-05-08T02:27:31.449Z,7.58
2023-05-08T02:28:35.469Z,7.57
2023-05-08T02:29:39.911Z,7.56
2023-05-08T02:30:44.878Z,7.56
2023-05-08T02:31:49.463Z,7.55
2023-05-08T02:32:55.176Z,7.55
2023-05-08T02:33:59.742Z,7.55
2023-05-08T02:35:03.973Z,7.54
2023-05-08T02:36:08.441Z,7.55
2023-05-08T02:37:13.095Z,7.54
2023-05-08T02:38:20.134Z,7.54
2023-05-08T02:39:26.436Z,7.53
2023-05-08T02:40:31.402Z,7.52
2023-05-08T02:41:35.734Z,7.51
2023-05-08T02:42:39.227Z,7.50
2023-05-08T02:43:42.613Z,7.50
2023-05-08T02:44:45.708Z,7.49
2023-05-08T02:46:12.729Z,7.48
2023-05-08T02:47:22.348Z,7.46
2023-05-08T02:48:33.413Z,7.45
2023-05-08T02:50:08.558Z,7.45
2023-05-08T02:51:21.276Z,7.43
2023-05-08T02:52:29.670Z,7.43
2023-05-08T02:53:37.525Z,7.43
2023-05-08T02:54:48.174Z,7.43
2023-05-08T02:55:53.864Z,7.43
2023-05-08T02:57:39.669Z,7.40
2023-05-08T02:58:47.496Z,7.39
2023-05-08T02:59:58.748Z,7.40
2023-05-08T03:01:29.156Z,7.41
2023-05-08T03:02:50.838Z,7.40
2023-05-08T03:04:03.568Z,7.39
2023-05-08T03:05:19.220Z,7.39
2023-05-08T03:06:26.037Z,7.39
2023-05-08T03:07:32.304Z,7.39
2023-05-08T03:08:35.633Z,7.39
2023-05-08T03:09:47.283Z,7.39
2023-05-08T03:10:54.190Z,7.40
2023-05-08T03:12:04.855Z,7.39
2023-05-08T03:13:10.527Z,7.38
2023-05-08T03:14:19.788Z,7.38
2023-05-08T03:15:34.914Z,7.37
2023-05-08T03:16:41.694Z,7.36
2023-05-08T03:17:47.501Z,7.35
2023-05-08T03:19:03.784Z,7.35
2023-05-08T03:20:10.384Z,7.35
2023-05-08T03:21:17.660Z,7.35
2023-05-08T03:22:21.618Z,7.35
2023-05-08T03:23:27.598Z,7.36
2023-05-08T03:24:33.712Z,7.37
2023-05-08T03:25:39.874Z,7.37
2023-05-08T03:26:44.039Z,7.38
2023-05-08T03:27:49.112Z,7.38
2023-05-08T03:28:54.202Z,7.39
2023-05-08T03:30:02.694Z,7.39
2023-05-08T03:31:07.400Z,7.39
2023-05-08T03:32:11.991Z,7.39
2023-05-08T03:33:17.687Z,7.41
2023-05-08T03:34:21.772Z,7.42
2023-05-08T03:35:26.852Z,7.43
2023-05-08T03:36:30.736Z,7.44
2023-05-08T03:37:33.899Z,7.45
2023-05-08T03:38:37.292Z,7.46
2023-05-08T03:39:40.701Z,7.47
2023-05-08T03:40:44.208Z,7.48
2023-05-08T03:41:47.975Z,7.49
2023-05-08T03:42:51.337Z,7.50
2023-05-08T03:43:56.093Z,7.52
2023-05-08T03:44:59.549Z,7.54
2023-05-08T03:46:04.778Z,7.56
2023-05-08T03:47:08.211Z,7.57
2023-05-08T03:48:11.911Z,7.60
2023-05-08T03:49:15.310Z,7.61
2023-05-08T03:50:18.401Z,7.63
2023-05-08T03:51:22.129Z,7.66
2023-05-08T03:52:26.195Z,7.68
2023-05-08T03:53:32.174Z,7.71
2023-05-08T03:54:35.556Z,7.74
2023-05-08T03:55:39.399Z,7.77
2023-05-08T03:56:46.023Z,7.80
2023-05-08T03:58:08.849Z,7.82
2023-05-08T03:59:21.111Z,7.85
2023-05-08T04:00:36.622Z,7.88
2023-05-08T04:01:44.218Z,7.91
2023-05-08T04:03:02.242Z,7.95
2023-05-08T04:04:27.206Z,8.00
2023-05-08T04:05:39.703Z,8.04
2023-05-08T04:07:03.739Z,8.07
2023-05-08T04:08:17.373Z,8.12
2023-05-08T04:09:37.666Z,8.15
2023-05-08T04:10:51.036Z,8.19
2023-05-08T04:12:14.181Z,8.22
2023-05-08T04:13:25.989Z,8.25
2023-05-08T04:14:34.790Z,8.28
2023-05-08T04:16:13.582Z,8.31
2023-05-08T04:17:26.014Z,8.35
2023-05-08T04:18:30.739Z,8.39
2023-05-08T04:19:42.922Z,8.44
2023-05-08T04:20:49.377Z,8.48
2023-05-08T04:21:55.870Z,8.53
2023-05-08T04:22:59.688Z,8.58
2023-05-08T04:24:07.339Z,8.63
2023-05-08T04:25:12.769Z,8.67
2023-05-08T04:26:17.830Z,8.72
2023-05-08T04:27:24.380Z,8.77
2023-05-08T04:28:27.253Z,8.82
2023-05-08T04:29:31.037Z,8.87
2023-05-08T04:30:34.461Z,8.92
2023-05-08T04:31:38.654Z,8.98
2023-05-08T04:32:43.594Z,9.03
2023-05-08T04:33:49.362Z,9.07
2023-05-08T04:34:53.122Z,9.13
2023-05-08T04:35:56.902Z,9.18
2023-05-08T04:36:59.878Z,9.23
2023-05-08T04:38:03.298Z,9.28
2023-05-08T04:39:06.161Z,9.32
2023-05-08T04:40:10.800Z,9.36
2023-05-08T04:41:16.024Z,9.41
2023-05-08T04:42:19.785Z,9.45
2023-05-08T04:43:22.662Z,9.49
2023-05-08T04:44:25.620Z,9.53
2023-05-08T04:45:28.581Z,9.58
2023-05-08T04:46:31.450Z,9.62
2023-05-08T04:47:35.076Z,9.67
2023-05-08T04:48:38.481Z,9.71
2023-05-08T04:49:42.580Z,9.76
2023-05-08T04:50:45.437Z,9.82
2023-05-08T04:51:48.323Z,9.87
2023-05-08T04:52:51.114Z,9.92
2023-05-08T04:53:54.012Z,9.98
2023-05-08T04:54:56.907Z,10.03
2023-05-08T04:55:59.836Z,10.09
2023-05-08T04:57:03.410Z,10.16
2023-05-08T04:58:06.454Z,10.23
2023-05-08T04:59:09.410Z,10.30
2023-05-08T05:00:12.842Z,10.38
2023-05-08T05:01:17.208Z,10.47
2023-05-08T05:02:20.573Z,10.55
2023-05-08T05:03:23.722Z,10.63
2023-05-08T05:04:26.640Z,10.70
2023-05-08T05:05:31.217Z,10.77
2023-05-08T05:06:34.275Z,10.85
2023-05-08T05:07:37.166Z,10.92
2023-05-08T05:08:40.127Z,10.99
2023-05-08T05:09:43.192Z,11.06
2023-05-08T05:10:46.017Z,11.12
2023-05-08T05:11:48.860Z,11.19
2023-05-08T05:12:52.381Z,11.27
2023-05-08T05:13:55.304Z,11.35
2023-05-08T05:14:58.848Z,11.43
2023-05-08T05:16:05.548Z,11.54
2023-05-08T05:17:08.518Z,11.67
2023-05-08T05:18:11.751Z,11.81
2023-05-08T05:19:14.848Z,11.93
2023-05-08T05:20:17.847Z,11.95
2023-05-08T05:21:20.777Z,11.94
2023-05-08T05:22:23.636Z,11.93
2023-05-08T05:23:26.621Z,11.89
2023-05-08T05:24:29.505Z,11.83
2023-05-08T05:25:34.801Z,11.77
2023-05-08T05:26:38.104Z,11.72
2023-05-08T05:27:41.034Z,11.66
2023-05-08T05:28:44.142Z,11.60
2023-05-08T05:29:47.137Z,11.57
2023-05-08T05:30:50.146Z,11.54
2023-05-08T05:31:53.689Z,11.51
2023-05-08T05:32:56.810Z,11.50
2023-05-08T05:34:00.566Z,11.49
2023-05-08T05:35:03.575Z,11.48
2023-05-08T05:36:07.984Z,11.46
2023-05-08T05:37:11.105Z,11.44
2023-05-08T05:38:14.021Z,11.42
2023-05-08T05:39:16.835Z,11.39
2023-05-08T05:40:20.255Z,11.38
2023-05-08T05:41:24.574Z,11.37
2023-05-08T05:42:27.709Z,11.35
2023-05-08T05:43:30.818Z,11.34
2023-05-08T05:44:33.730Z,11.34
2023-05-08T05:45:37.050Z,11.34
2023-05-08T05:46:42.176Z,11.37
2023-05-08T05:47:54.048Z,11.41
2023-05-08T05:48:57.713Z,11.51
2023-05-08T05:50:00.541Z,11.60
2023-05-08T05:51:03.794Z,11.67
2023-05-08T05:52:06.855Z,11.71
2023-05-08T05:53:10.045Z,11.75
2023-05-08T05:54:14.520Z,11.80
2023-05-08T05:55:17.523Z,11.83
2023-05-08T05:56:23.492Z,11.86
2023-05-08T05:57:27.475Z,11.91
2023-05-08T05:58:30.592Z,11.95
2023-05-08T05:59:33.780Z,11.98
2023-05-08T06:00:36.697Z,12.01
2023-05-08T06:01:39.655Z,12.04
2023-05-08T06:02:43.019Z,12.08
2023-05-08T06:03:48.393Z,12.12
2023-05-08T06:04:51.920Z,12.16
2023-05-08T06:05:55.859Z,12.21
2023-05-08T06:06:59.307Z,12.24
2023-05-08T06:08:02.089Z,12.27
2023-05-08T06:09:06.979Z,12.29
2023-05-08T06:10:10.359Z,12.32
2023-05-08T06:11:13.214Z,12.37
2023-05-08T06:12:16.507Z,12.40
2023-05-08T06:13:20.399Z,12.44
2023-05-08T06:14:23.431Z,12.48
2023-05-08T06:15:26.813Z,12.51
2023-05-08T06:16:30.651Z,12.56
2023-05-08T06:17:33.797Z,12.60
2023-05-08T06:18:37.425Z,12.65
2023-05-08T06:19:40.431Z,12.68
2023-05-08T06:20:43.387Z,12.72
2023-05-08T06:21:46.373Z,12.76
2023-05-08T06:22:49.156Z,12.81
2023-05-08T06:23:52.241Z,12.84
2023-05-08T06:24:55.054Z,12.88
2023-05-08T06:25:57.801Z,12.92
2023-05-08T06:27:00.840Z,12.97
2023-05-08T06:28:06.515Z,13.01
2023-05-08T06:29:09.371Z,13.06
2023-05-08T06:30:12.438Z,13.10
2023-05-08T06:31:15.335Z,13.14
2023-05-08T06:32:18.425Z,13.18
2023-05-08T06:33:21.313Z,13.21
2023-05-08T06:34:24.861Z,13.24
2023-05-08T06:35:27.731Z,13.26
2023-05-08T06:36:30.785Z,13.30
2023-05-08T06:37:33.727Z,13.33
2023-05-08T06:38:36.477Z,13.37
2023-05-08T06:39:39.965Z,13.42
2023-05-08T06:40:46.029Z,13.46
2023-05-08T06:41:49.316Z,13.52
2023-05-08T06:43:00.140Z,13.56
2023-05-08T06:44:03.024Z,13.60
2023-05-08T06:45:06.814Z,13.63
2023-05-08T06:46:09.668Z,13.67
2023-05-08T06:47:12.478Z,13.71
2023-05-08T06:48:15.441Z,13.74
2023-05-08T06:49:18.255Z,13.76
2023-05-08T06:50:21.174Z,13.79
2023-05-08T06:51:24.095Z,13.82
2023-05-08T06:52:26.972Z,13.86
2023-05-08T06:53:30.041Z,13.92
2023-05-08T06:54:32.818Z,13.95
2023-05-08T06:55:35.813Z,14.00
2023-05-08T06:56:38.628Z,14.03
2023-05-08T06:57:41.480Z,14.07
2023-05-08T06:58:48.333Z,14.12
2023-05-08T07:00:00.382Z,14.17
2023-05-08T07:01:03.421Z,14.21
2023-05-08T07:02:06.408Z,14.25
2023-05-08T07:03:09.405Z,14.30
2023-05-08T07:04:12.506Z,14.34
2023-05-08T07:05:15.745Z,14.36
2023-05-08T07:06:19.060Z,14.39
2023-05-08T07:07:21.800Z,14.44
2023-05-08T07:08:24.521Z,14.50
2023-05-08T07:09:27.533Z,14.52
2023-05-08T07:10:30.429Z,14.55
2023-05-08T07:11:33.762Z,14.58
2023-05-08T07:12:36.523Z,14.62
2023-05-08T07:13:39.272Z,14.67
2023-05-08T07:14:43.432Z,14.72
2023-05-08T07:15:46.216Z,14.76
2023-05-08T07:16:49.171Z,14.80
2023-05-08T07:17:52.014Z,14.82
2023-05-08T07:18:54.787Z,14.85
2023-05-08T07:19:57.567Z,14.88
2023-05-08T07:21:00.296Z,14.92
2023-05-08T07:22:03.502Z,14.95
2023-05-08T07:23:07.037Z,15.00
2023-05-08T07:24:09.880Z,15.04
2023-05-08T07:25:13.103Z,15.08
2023-05-08T07:26:16.139Z,15.11
2023-05-08T07:27:20.149Z,15.14
2023-05-08T07:28:22.914Z,15.16
2023-05-08T07:29:26.972Z,15.17
2023-05-08T07:30:30.223Z,15.20
2023-05-08T07:31:33.067Z,15.22
2023-05-08T07:32:36.378Z,15.25
2023-05-08T07:33:39.283Z,15.26
2023-05-08T07:34:42.317Z,15.29
2023-05-08T07:35:45.469Z,15.32
2023-05-08T07:36:48.294Z,15.35
2023-05-08T07:37:51.139Z,15.37
2023-05-08T07:38:53.914Z,15.41
2023-05-08T07:39:56.721Z,15.42
2023-05-08T07:41:02.017Z,15.45
2023-05-08T07:42:04.981Z,15.48
2023-05-08T07:43:07.817Z,15.51
2023-05-08T07:44:10.683Z,15.54
2023-05-08T07:45:14.226Z,15.58
2023-05-08T07:46:20.717Z,15.61
2023-05-08T07:47:23.604Z,15.63
2023-05-08T07:48:27.095Z,15.64
2023-05-08T07:49:29.941Z,15.67
2023-05-08T07:50:32.756Z,15.69
2023-05-08T07:51:35.540Z,15.73
2023-05-08T07:52:38.422Z,15.76
2023-05-08T07:53:41.808Z,15.79
2023-05-08T07:54:44.599Z,15.82
2023-05-08T07:55:47.451Z,15.86
2023-05-08T07:56:50.389Z,15.88
2023-05-08T07:57:53.137Z,15.93
2023-05-08T07:58:56.181Z,15.95
2023-05-08T08:00:02.212Z,15.97
2023-05-08T08:01:18.155Z,15.99
2023-05-08T08:02:21.412Z,15.99
2023-05-08T08:03:24.460Z,15.99
2023-05-08T08:04:27.998Z,16.02
2023-05-08T08:05:30.888Z,16.06
2023-05-08T08:06:33.830Z,16.10
2023-05-08T08:07:36.795Z,16.14
2023-05-08T08:08:39.665Z,16.17
2023-05-08T08:09:42.744Z,16.21
2023-05-08T08:10:45.567Z,16.26
2023-05-08T08:11:48.406Z,16.30
2023-05-08T08:12:51.243Z,16.33
2023-05-08T08:13:54.059Z,16.36
2023-05-08T08:14:57.066Z,16.38
2023-05-08T08:16:01.034Z,16.38
2023-05-08T08:17:03.941Z,16.39
2023-05-08T08:18:07.056Z,16.40
2023-05-08T08:19:10.844Z,16.43
2023-05-08T08:20:14.393Z,16.45
2023-05-08T08:21:17.316Z,16.46
2023-05-08T08:22:20.125Z,16.48
2023-05-08T08:23:23.044Z,16.50
2023-05-08T08:24:26.430Z,16.54
2023-05-08T08:25:30.005Z,16.57
2023-05-08T08:26:32.804Z,16.59
2023-05-08T08:27:35.654Z,16.58
2023-05-08T08:28:38.516Z,16.56
2023-05-08T08:29:41.562Z,16.54
2023-05-08T08:30:44.728Z,16.53
2023-05-08T08:31:47.508Z,16.56
2023-05-08T08:32:50.746Z,16.56
2023-05-08T08:33:54.006Z,16.58
2023-05-08T08:34:56.916Z,16.60
2023-05-08T08:35:59.917Z,16.62
2023-05-08T08:37:02.735Z,16.66
2023-05-08T08:38:05.596Z,16.69
2023-05-08T08:39:10.935Z,16.68
2023-05-08T08:40:14.917Z,16.66
2023-05-08T08:41:17.856Z,16.67
2023-05-08T08:42:20.732Z,16.69
2023-05-08T08:43:23.611Z,16.73
2023-05-08T08:44:27.796Z,16.79
2023-05-08T08:45:31.137Z,16.83
2023-05-08T08:46:35.871Z,16.86
2023-05-08T08:47:41.718Z,16.90
2023-05-08T08:48:47.062Z,16.94
2023-05-08T08:49:51.732Z,16.97
2023-05-08T08:51:02.452Z,16.99
2023-05-08T08:52:30.679Z,17.03
2023-05-08T08:53:37.961Z,17.09
2023-05-08T08:54:44.178Z,17.11
2023-05-08T08:55:50.421Z,17.14
2023-05-08T08:56:55.844Z,17.17
2023-05-08T08:58:15.039Z,17.20
2023-05-08T08:59:18.680Z,17.23
2023-05-08T09:00:23.666Z,17.26
2023-05-08T09:01:29.462Z,17.28
2023-05-08T09:02:32.522Z,17.30
2023-05-08T09:03:35.750Z,17.34
2023-05-08T09:04:39.095Z,17.36
2023-05-08T09:05:44.077Z,17.36
2023-05-08T09:06:47.288Z,17.37
2023-05-08T09:07:54.238Z,17.40
2023-05-08T09:08:58.817Z,17.43
2023-05-08T09:10:02.776Z,17.46
2023-05-08T09:11:05.628Z,17.50
2023-05-08T09:12:08.894Z,17.51
2023-05-08T09:13:11.959Z,17.53
2023-05-08T09:14:15.493Z,17.55
2023-05-08T09:15:19.579Z,17.55
2023-05-08T09:16:23.929Z,17.56
2023-05-08T09:17:26.710Z,17.58
2023-05-08T09:18:29.471Z,17.60
2023-05-08T09:19:33.763Z,17.60
2023-05-08T09:20:36.903Z,17.62
2023-05-08T09:21:40.049Z,17.63
2023-05-08T09:22:44.223Z,17.65
2023-05-08T09:24:01.443Z,17.66
2023-05-08T09:25:04.682Z,17.66
2023-05-08T09:26:07.531Z,17.65
2023-05-08T09:27:21.165Z,17.65
2023-05-08T09:28:25.603Z,17.65
2023-05-08T09:29:28.508Z,17.65
2023-05-08T09:30:31.723Z,17.65
2023-05-08T09:31:35.834Z,17.63
2023-05-08T09:32:41.283Z,17.62
2023-05-08T09:33:45.582Z,17.62
2023-05-08T09:34:52.639Z,17.62
2023-05-08T09:35:56.971Z,17.58
2023-05-08T09:37:05.913Z,17.59
2023-05-08T09:38:08.858Z,17.58
2023-05-08T09:39:12.773Z,17.55
2023-05-08T09:40:22.468Z,17.54
2023-05-08T09:41:26.740Z,17.54
2023-05-08T09:42:37.969Z,17.54
2023-05-08T09:43:42.149Z,17.51
2023-05-08T09:44:47.581Z,17.51
2023-05-08T09:45:50.441Z,17.46
2023-05-08T09:47:10.853Z,17.38
2023-05-08T09:48:13.512Z,17.34
2023-05-08T09:49:19.821Z,17.34
2023-05-08T09:50:23.288Z,17.33
2023-05-08T09:51:28.352Z,17.33
2023-05-08T09:52:33.094Z,17.33
2023-05-08T09:53:36.022Z,17.32
2023-05-08T09:54:39.116Z,17.31
2023-05-08T09:55:48.610Z,17.31
2023-05-08T09:56:51.594Z,17.33
2023-05-08T09:57:57.320Z,17.33
2023-05-08T09:59:02.806Z,17.31
2023-05-08T10:00:09.953Z,17.31
2023-05-08T10:01:33.109Z,17.34
2023-05-08T10:02:36.697Z,17.41
2023-05-08T10:03:51.833Z,17.47
2023-05-08T10:04:54.772Z,17.52
2023-05-08T10:06:13.356Z,17.55
2023-05-08T10:07:16.329Z,17.58
2023-05-08T10:08:21.215Z,17.58
2023-05-08T10:09:24.116Z,17.59
2023-05-08T10:10:28.871Z,17.65
2023-05-08T10:11:31.811Z,17.66
2023-05-08T10:12:35.027Z,17.67
2023-05-08T10:13:37.931Z,17.69
2023-05-08T10:14:40.824Z,17.71
2023-05-08T10:15:45.022Z,17.73
2023-05-08T10:16:49.952Z,17.76
2023-05-08T10:18:06.368Z,17.80
2023-05-08T10:19:14.558Z,17.84
2023-05-08T10:20:21.605Z,17.89
2023-05-08T10:21:28.687Z,17.92
2023-05-08T10:22:36.315Z,17.93
2023-05-08T10:23:40.321Z,17.95
2023-05-08T10:24:44.452Z,17.98
2023-05-08T10:25:54.137Z,18.00
2023-05-08T10:27:07.475Z,18.01
2023-05-08T10:28:16.869Z,18.04
2023-05-08T10:29:25.102Z,18.09
2023-05-08T10:30:30.862Z,18.13
2023-05-08T10:31:40.651Z,18.17
2023-05-08T10:32:45.484Z,18.19
2023-05-08T10:33:51.659Z,18.18
2023-05-08T10:34:59.005Z,18.13
2023-05-08T10:36:02.094Z,18.09
2023-05-08T10:37:06.155Z,18.08
2023-05-08T10:38:09.630Z,18.10
2023-05-08T10:39:15.521Z,18.15
2023-05-08T10:40:21.685Z,18.20
2023-05-08T10:41:26.005Z,18.23
2023-05-08T10:42:29.221Z,18.25
2023-05-08T10:43:32.498Z,18.27
2023-05-08T10:44:35.546Z,18.30
2023-05-08T10:45:38.573Z,18.35
2023-05-08T10:46:51.791Z,18.40
2023-05-08T10:48:25.706Z,18.45
2023-05-08T10:49:34.974Z,18.50
2023-05-08T10:50:51.446Z,18.51
2023-05-08T10:52:24.347Z,18.51
2023-05-08T10:53:40.095Z,18.53
2023-05-08T10:55:04.589Z,18.56
2023-05-08T10:56:07.749Z,18.63
2023-05-08T10:57:11.834Z,18.68
2023-05-08T10:58:28.439Z,18.71
2023-05-08T10:59:35.869Z,18.75
2023-05-08T11:00:54.067Z,18.79
2023-05-08T11:02:07.296Z,18.84
2023-05-08T11:03:20.123Z,18.89
2023-05-08T11:04:30.657Z,18.94
2023-05-08T11:05:46.489Z,18.97
2023-05-08T11:06:53.060Z,18.99
2023-05-08T11:07:57.922Z,19.05
2023-05-08T11:09:01.082Z,19.08
2023-05-08T11:10:13.217Z,19.11
2023-05-08T11:11:27.705Z,19.18
2023-05-08T11:12:31.644Z,19.25
2023-05-08T11:13:39.931Z,19.30
2023-05-08T11:14:43.977Z,19.30
2023-05-08T11:15:51.061Z,19.32
2023-05-08T11:16:54.057Z,19.46
2023-05-08T11:17:56.955Z,19.73
2023-05-08T11:19:19.828Z,20.03
2023-05-08T11:20:41.859Z,20.42
2023-05-08T11:22:16.263Z,20.71
2023-05-08T11:23:27.378Z,20.93
2023-05-08T11:24:36.916Z,21.05
2023-05-08T11:25:44.310Z,21.13
2023-05-08T11:26:50.005Z,21.19
2023-05-08T11:27:52.793Z,21.25
2023-05-08T11:28:57.427Z,21.30
2023-05-08T11:30:19.869Z,21.32
2023-05-08T11:31:23.345Z,21.37
2023-05-08T11:33:04.903Z,21.42
2023-05-08T11:34:43.269Z,21.55
2023-05-08T11:35:52.393Z,21.64
2023-05-08T11:37:02.518Z,21.68
2023-05-08T11:38:30.674Z,21.74
2023-05-08T11:39:33.538Z,21.91
2023-05-08T11:41:07.429Z,22.01
2023-05-08T11:42:34.144Z,22.20
2023-05-08T11:44:10.500Z,22.34
2023-05-08T11:45:14.304Z,22.52
2023-05-08T11:46:20.467Z,22.67
2023-05-08T11:47:25.815Z,22.79
2023-05-08T11:48:28.806Z,22.92
2023-05-08T11:49:31.684Z,23.06
2023-05-08T11:50:36.112Z,23.22
2023-05-08T11:51:39.191Z,23.35
2023-05-08T11:52:43.050Z,23.49
2023-05-08T11:53:47.001Z,23.67
2023-05-08T11:54:49.866Z,23.87
2023-05-08T11:55:53.426Z,24.02
2023-05-08T11:56:57.538Z,24.16
2023-05-08T11:58:00.396Z,24.37
2023-05-08T11:59:04.941Z,24.52
2023-05-08T12:00:10.133Z,24.63
2023-05-08T12:01:19.879Z,24.74
2023-05-08T12:02:43.849Z,24.90
2023-05-08T12:03:46.940Z,25.05
2023-05-08T12:04:49.793Z,25.12
2023-05-08T12:05:56.314Z,25.20
2023-05-08T12:06:59.609Z,25.31
2023-05-08T12:08:04.285Z,25.47
2023-05-08T12:09:16.127Z,25.65
2023-05-08T12:10:19.157Z,25.85
2023-05-08T12:11:24.622Z,26.04
2023-05-08T12:12:38.236Z,26.16
2023-05-08T12:13:41.108Z,26.27
2023-05-08T12:14:43.919Z,26.35
2023-05-08T12:15:48.310Z,26.49
2023-05-08T12:16:51.462Z,26.66
2023-05-08T12:18:03.639Z,26.71
2023-05-08T12:19:11.361Z,26.72
2023-05-08T12:20:16.035Z,26.83
2023-05-08T12:21:19.660Z,26.94
2023-05-08T12:22:22.427Z,26.98
2023-05-08T12:23:26.371Z,27.01
2023-05-08T12:24:29.364Z,26.99
2023-05-08T12:25:32.262Z,27.00
2023-05-08T12:26:37.284Z,26.94
2023-05-08T12:27:40.313Z,26.92
2023-05-08T12:28:45.701Z,26.94
2023-05-08T12:29:48.516Z,27.01
2023-05-08T12:30:51.688Z,27.16
2023-05-08T12:31:55.882Z,27.26
2023-05-08T12:32:59.204Z,27.39
2023-05-08T12:34:04.491Z,27.56
2023-05-08T12:35:12.252Z,27.78
2023-05-08T12:36:15.198Z,28.11
2023-05-08T12:37:27.344Z,28.37
2023-05-08T12:38:30.247Z,28.70
2023-05-08T12:39:37.641Z,28.90
2023-05-08T12:40:42.716Z,29.07
2023-05-08T12:41:49.628Z,29.39
2023-05-08T12:42:52.669Z,29.66
2023-05-08T12:43:57.198Z,30.00
2023-05-08T12:45:00.155Z,30.31
2023-05-08T12:46:05.437Z,30.57
2023-05-08T12:47:08.297Z,30.75
2023-05-08T12:48:13.407Z,30.98
2023-05-08T12:49:24.242Z,31.29
2023-05-08T12:50:27.461Z,31.38
2023-05-08T12:51:31.435Z,31.54
2023-05-08T12:52:36.773Z,31.67
2023-05-08T12:53:39.657Z,31.90
2023-05-08T12:54:49.371Z,32.08
2023-05-08T12:55:54.331Z,32.09
2023-05-08T12:56:57.441Z,32.20
2023-05-08T12:58:04.585Z,32.26
2023-05-08T12:59:07.560Z,32.33
2023-05-08T13:00:11.445Z,32.36
2023-05-08T13:01:16.146Z,32.33
2023-05-08T13:02:24.237Z,32.31
2023-05-08T13:03:29.565Z,32.36
2023-05-08T13:04:37.266Z,32.29
2023-05-08T13:05:45.081Z,32.28
2023-05-08T13:06:57.472Z,32.21
2023-05-08T13:08:05.690Z,32.21
2023-05-08T13:09:08.777Z,32.24
2023-05-08T13:10:11.857Z,32.28
2023-05-08T13:11:28.008Z,32.44
2023-05-08T13:12:31.842Z,32.64
2023-05-08T13:13:36.301Z,32.70
2023-05-08T13:14:39.477Z,32.80
2023-05-08T13:15:42.884Z,32.87
2023-05-08T13:16:48.075Z,32.88
2023-05-08T13:17:51.554Z,33.06
2023-05-08T13:18:54.478Z,33.09
2023-05-08T13:19:57.398Z,32.96
2023-05-08T13:21:02.182Z,32.91
2023-05-08T13:22:05.172Z,32.96
2023-05-08T13:23:09.302Z,32.93
2023-05-08T13:24:12.266Z,33.01
2023-05-08T13:25:22.051Z,32.93
2023-05-08T14:12:57.320Z,33.07
2023-05-08T14:14:01.249Z,33.22
2023-05-08T14:15:21.395Z,33.38
2023-05-08T14:16:34.021Z,33.38
2023-05-08T14:19:03.842Z,33.21
2023-05-08T14:20:06.140Z,33.38
2023-05-08T14:21:07.927Z,33.38
2023-05-08T14:22:09.451Z,33.39
2023-05-08T14:23:10.898Z,33.50
2023-05-08T14:24:12.653Z,33.57
2023-05-08T14:25:14.287Z,33.48
2023-05-08T14:26:15.942Z,33.48
2023-05-08T14:27:17.384Z,33.39
2023-05-08T14:28:18.735Z,33.34
2023-05-08T14:29:20.600Z,33.33
2023-05-08T14:30:22.138Z,33.38
2023-05-08T14:31:23.566Z,33.36
2023-05-08T14:32:25.039Z,33.32
2023-05-08T14:33:27.052Z,33.36
2023-05-08T14:34:28.886Z,33.48
2023-05-08T14:35:30.295Z,33.48
2023-05-08T14:36:32.191Z,33.48
2023-05-08T14:37:33.662Z,33.58
2023-05-08T14:38:35.110Z,33.76
2023-05-08T14:39:36.610Z,33.91
2023-05-08T14:40:37.988Z,33.94
2023-05-08T14:41:39.809Z,33.93
2023-05-08T14:42:41.381Z,33.94
2023-05-08T14:43:43.304Z,33.87
2023-05-08T14:44:45.004Z,33.83
2023-05-08T14:45:47.380Z,33.86
2023-05-08T14:46:51.259Z,33.96
2023-05-08T14:47:52.887Z,34.06
2023-05-08T14:48:55.583Z,34.12
2023-05-08T14:49:58.721Z,34.27
2023-05-08T14:51:00.276Z,34.39
2023-05-08T14:52:01.892Z,34.46
2023-05-08T14:53:03.579Z,34.42
2023-05-08T14:54:05.981Z,34.44
2023-05-08T14:55:08.770Z,34.40
2023-05-08T14:56:10.876Z,34.39
2023-05-08T14:57:12.481Z,34.46
2023-05-08T14:58:14.219Z,34.42
2023-05-08T14:59:15.665Z,34.44
2023-05-08T15:00:18.320Z,34.48
2023-05-08T15:01:20.109Z,34.57
2023-05-08T15:02:23.062Z,34.63
2023-05-08T15:03:25.252Z,34.76
2023-05-08T15:04:26.950Z,34.84
2023-05-08T15:05:28.904Z,34.77
2023-05-08T15:06:31.656Z,34.70
2023-05-08T15:07:33.837Z,34.62
2023-05-08T15:08:35.437Z,34.52
2023-05-08T15:09:36.966Z,34.51
2023-05-08T15:10:38.668Z,34.57
2023-05-08T15:11:40.459Z,34.67